createdAt,value
2017-10-01T16:05:24.607Z,9.67
2017-10-01T16:07:52.091Z,12.67
2017-10-01T16:10:19.584Z,10.60
2017-10-01T16:12:47.120Z,8.90
2017-10-01T16:15:14.629Z,8.30
2017-10-01T16:17:42.115Z,8.00
2017-10-01T16:20:09.663Z,10.07
2017-10-01T16:22:37.155Z,10.20
2017-10-01T16:25:04.689Z,8.77
2017-10-01T16:27:32.236Z,8.57
2017-10-01T16:29:59.727Z,10.00
2017-10-01T16:32:27.235Z,9.27
2017-10-01T16:34:54.774Z,7.83
2017-10-01T16:37:22.271Z,9.70
2017-10-01T16:39:49.755Z,9.37
2017-10-01T16:42:17.284Z,9.03
2017-10-01T16:44:44.765Z,9.00
2017-10-01T16:47:12.619Z,8.80
2017-10-01T16:49:40.178Z,9.40
2017-10-01T16:52:07.667Z,10.37
2017-10-01T16:54:35.155Z,12.03
2017-10-01T16:57:02.686Z,14.13
2017-10-01T16:59:30.199Z,13.20
2017-10-01T17:01:57.708Z,13.60
2017-10-01T17:04:25.255Z,13.93
2017-10-01T17:06:52.753Z,13.80
2017-10-01T17:09:20.240Z,13.13
2017-10-01T17:11:47.799Z,13.77
2017-10-01T17:14:15.291Z,14.43
2017-10-01T17:16:42.782Z,12.73
2017-10-01T17:19:10.350Z,13.93
2017-10-01T17:21:37.841Z,14.10
2017-10-01T17:24:05.330Z,13.50
2017-10-01T17:26:33.140Z,16.03
2017-10-01T17:29:00.703Z,16.43
2017-10-01T17:31:28.198Z,15.37
2017-10-01T17:33:55.730Z,15.13
2017-10-01T17:36:23.218Z,14.80
2017-10-01T17:38:50.735Z,14.77
2017-10-01T17:41:18.276Z,15.67
2017-10-01T17:43:45.763Z,14.03
2017-10-01T17:46:13.250Z,14.60
2017-10-01T17:48:40.788Z,16.80
2017-10-01T17:51:08.344Z,15.43
2017-10-01T17:53:35.828Z,16.90
2017-10-01T17:56:03.354Z,15.30
2017-10-01T17:58:30.845Z,14.80
2017-10-01T18:00:58.432Z,15.50
2017-10-01T18:03:25.923Z,15.73
2017-10-01T18:05:53.413Z,15.40
2017-10-01T18:08:20.951Z,15.60
2017-10-01T18:10:48.434Z,15.83
2017-10-01T18:13:15.930Z,14.70
2017-10-01T18:15:43.503Z,15.37
2017-10-01T18:18:11.020Z,16.90
2017-10-01T18:20:38.520Z,16.80
2017-10-01T18:23:06.047Z,15.93
2017-10-01T18:25:33.570Z,16.23
2017-10-01T18:28:01.060Z,19.57
2017-10-01T18:30:28.670Z,26.20
2017-10-01T18:32:56.156Z,16.63
2017-10-01T18:35:23.674Z,16.27
2017-10-01T18:37:51.230Z,15.13
2017-10-01T18:40:18.732Z,16.27
2017-10-01T18:42:46.251Z,15.27
2017-10-01T18:45:13.745Z,14.00
2017-10-01T18:47:41.304Z,14.60
2017-10-01T18:50:08.800Z,15.63
2017-10-01T18:52:36.289Z,14.67
2017-10-01T18:55:03.823Z,15.40
2017-10-01T18:57:31.426Z,15.47
2017-10-01T18:59:58.961Z,15.53
2017-10-01T19:02:26.611Z,15.50
2017-10-01T19:04:54.103Z,16.13
2017-10-01T19:07:21.674Z,19.03
2017-10-01T19:09:49.295Z,16.70
2017-10-01T19:12:16.804Z,16.70
2017-10-01T19:14:44.299Z,16.00
2017-10-01T19:17:11.823Z,18.80
2017-10-01T19:19:39.312Z,17.43
2017-10-01T19:22:06.891Z,16.17
2017-10-01T19:24:34.663Z,17.60
2017-10-01T19:27:02.154Z,15.30
2017-10-01T19:29:29.638Z,14.50
2017-10-01T19:31:57.205Z,16.60
2017-10-01T19:34:24.710Z,17.70
2017-10-01T19:36:52.201Z,19.30
2017-10-01T19:39:19.743Z,16.67
2017-10-01T19:41:47.775Z,15.70
2017-10-01T19:44:16.817Z,16.20
2017-10-01T19:46:45.519Z,17.00
2017-10-01T19:49:13.193Z,17.27
2017-10-01T19:51:40.739Z,15.77
2017-10-01T19:54:08.331Z,17.33
2017-10-01T19:56:35.852Z,16.30
2017-10-01T19:59:03.334Z,15.70
2017-10-01T20:01:30.824Z,23.43
2017-10-01T20:03:58.377Z,24.37
2017-10-01T20:06:25.927Z,19.70
2017-10-01T20:08:53.430Z,24.30
2017-10-01T20:11:21.156Z,16.20
2017-10-01T20:13:48.642Z,21.63
2017-10-01T20:16:16.136Z,26.90
2017-10-01T20:18:43.679Z,26.30
2017-10-01T20:21:11.186Z,16.57
2017-10-01T20:23:38.668Z,17.90
2017-10-01T20:26:06.203Z,16.37
2017-10-01T20:28:33.726Z,17.60
2017-10-01T20:31:01.211Z,24.70
2017-10-01T20:33:28.738Z,20.97
2017-10-01T20:35:56.235Z,18.20
2017-10-01T20:38:23.732Z,17.67
2017-10-01T20:40:51.264Z,32.00
2017-10-01T20:43:18.756Z,24.20
2017-10-01T20:45:46.271Z,19.67
2017-10-01T20:48:13.770Z,16.67
2017-10-01T20:50:41.306Z,18.93
2017-10-01T20:53:08.834Z,18.90
2017-10-01T20:55:36.351Z,16.50
2017-10-01T20:58:03.852Z,16.33
2017-10-01T21:00:31.415Z,17.20
2017-10-01T21:02:58.915Z,18.70
2017-10-01T21:05:26.411Z,17.30
2017-10-01T21:07:53.975Z,18.50
2017-10-01T21:10:21.474Z,15.90
2017-10-01T21:12:48.965Z,17.10
2017-10-01T21:15:16.501Z,17.57
2017-10-01T21:17:44.007Z,18.73
2017-10-01T21:20:11.605Z,30.43
2017-10-01T21:22:39.239Z,19.27
2017-10-01T21:25:06.728Z,20.47
2017-10-01T21:27:34.215Z,19.23
2017-10-01T21:30:01.761Z,18.40
2017-10-01T21:32:29.252Z,21.33
2017-10-01T21:34:56.735Z,19.20
2017-10-01T21:37:24.301Z,22.60
2017-10-01T21:39:51.790Z,16.43
2017-10-01T21:42:19.311Z,17.23
2017-10-01T21:44:46.835Z,20.20
2017-10-01T21:47:14.320Z,17.87
2017-10-01T21:49:41.810Z,17.57
2017-10-01T21:52:09.444Z,18.83
2017-10-01T21:54:37.040Z,35.13
2017-10-01T21:57:04.542Z,23.30
2017-10-01T21:59:32.135Z,24.40
2017-10-01T22:01:59.622Z,21.10
2017-10-01T22:04:27.110Z,18.03
2017-10-01T22:06:54.650Z,17.83
2017-10-01T22:09:22.140Z,18.33
2017-10-01T22:11:49.631Z,20.83
2017-10-01T22:14:17.172Z,19.73
2017-10-01T22:16:44.662Z,18.03
2017-10-01T22:19:12.195Z,19.60
2017-10-01T22:21:39.686Z,17.33
2017-10-01T22:24:07.181Z,17.67
2017-10-01T22:26:34.967Z,19.90
2017-10-01T22:29:02.460Z,21.80
2017-10-01T22:31:29.990Z,18.80
2017-10-01T22:33:57.647Z,18.73
2017-10-01T22:36:25.129Z,18.97
2017-10-01T22:38:52.664Z,18.97
2017-10-01T22:41:20.213Z,18.63
2017-10-01T22:43:47.788Z,18.70
2017-10-01T22:46:15.364Z,21.00
2017-10-01T22:48:42.911Z,28.60
2017-10-01T22:51:10.408Z,21.10
2017-10-01T22:53:37.894Z,19.03
2017-10-01T22:56:05.685Z,22.27
2017-10-01T22:58:33.179Z,20.40
2017-10-01T23:01:00.671Z,20.73
2017-10-01T23:03:28.219Z,18.60
2017-10-01T23:05:55.710Z,20.10
2017-10-01T23:08:23.198Z,20.17
2017-10-01T23:10:50.718Z,19.93
2017-10-01T23:13:18.283Z,21.43
2017-10-01T23:15:45.777Z,20.57
2017-10-01T23:18:13.272Z,22.67
2017-10-01T23:20:40.794Z,19.70
2017-10-01T23:23:08.432Z,18.83
2017-10-01T23:25:35.994Z,19.57
2017-10-01T23:28:03.481Z,20.40
2017-10-01T23:30:31.103Z,19.60
2017-10-01T23:32:58.600Z,20.43
2017-10-01T23:35:26.093Z,21.67
2017-10-01T23:37:53.780Z,20.23
2017-10-01T23:40:21.271Z,19.83
2017-10-01T23:42:48.764Z,20.70
2017-10-01T23:45:16.300Z,20.90
2017-10-01T23:47:43.796Z,20.53
2017-10-01T23:50:11.288Z,21.30
2017-10-01T23:52:38.850Z,21.80
2017-10-01T23:55:06.341Z,21.40
2017-10-01T23:57:33.831Z,19.93
